Airfield :
LOGIN :

Register | Disclaimer

   EN    FR    IT 

 










Legend :    VFR   Marginal VFR   IFR   Intensive IFR   Very Intensive IFR
Visi :
Ceiling :
>= 8 km
>= 3000ft
5 to 8 km
1000 to 3000 ft
1500m to 5 km
500 to 1000 ft
800 to 1500m
200 to 500 ft
< 800m
< 200 ft
Symbols :   Thunderstorms  Fog  Heavy snow  Heavy precipitations  Wind > 20 kt
SIGMETs :     Misc.  Thunderstorms  Icing  Turbulence  Mountain Waves  Volcanic Ashes






- Airport Elevation : 135 ft
- IATA code : TLV


LLBG - Ben Gurion

CURRENT METAR :
  • 020720Z 21006KT 170V250 9999 FEW021 SCT027 18/11 Q1016 NOSIG

EXPIRED METARs :
  • 020650Z 20005KT 9999 FEW018 SCT021 18/12 Q1016 NOSIG
  • 020620Z 18006KT 9999 FEW020 17/12 Q1016 NOSIG
  • 020550Z 17006KT 9999 FEW030 16/12 Q1016 NOSIG
  • 020520Z 16006KT 9999 FEW017 15/11 Q1016 NOSIG
  • 020450Z 14005KT 9999 SCT016 SCT024 14/11 Q1015 TEMPO BKN015

TAF TAF LLBG
Valid from the 02 at 06:00 until the 03 at 06:00 UTC


020504Z 0206/0306 VRB03KT 9999 SCT015 BKN025
BECMG 0207/0210 30010KT FEW040
BECMG 0215/0217 VRB03KT CAVOK
BECMG 0222/0224 14004KT
PROB30 0300/0303 7000 FEW008 TX23/0211Z TN10/0303Z



MET'MAP, your aeronautical weather chart ! - Copyright ORBIFLY December 2007 - Disclaimer

ORBIFLY MET'MAP TEAM :

Programming & Development : Alexandra Zaïnal
Concept & original design : Baudouin d'Aumeries
Assistance for programming : Marc-Olivier Méhu
Technical & hardware support : Manuel Goepfert

Contact : metmap@orbifly.com




SOURCES & CREDITS :

   NOAA